Miami, Florida
Traffic Map
Current Weather Conditions
Miami, Florida
Overcast
Overcast
85°
Feels Like: 92°
Wind Chill: 85° Ceiling: 25000
Heat Index: 92° Visibility: 10mi
Dew Point: 73° Wind: 12mph
Humidity: 67% Direction: 110° (ESE)
Pressure: 30.05in Gusts: 0mph
Raw Report DataKMIA 241753Z 11010KT 10SM SCT026 SCT050 SCT170 OVC250 29/23 A3005 RMK AO2 SLP177 60000 T02940228 10300 20261 58009
Traffic Incident Summary
Active as of:
Severity:
Category:
InformationThere was an issue retrieving the traffic information for this location. Please try a different location or try again shortly.
Advertisements